Time;durP1;ratioP1;P1;durP2;ratioP2;P2;SDS_P1;SDS_P2;PMS_P1;PMS_P2;Temp;Humidity;BMP_temperature;BMP_pressure;BME280_temperature;BME280_humidity;BME280_pressure;Samples;Min_cycle;Max_cycle;Signal;HPM_P1;HPM_P2
2023/10/13 00:01:34;;;;;;;115.57;79.13;;;14.30;99.90;;;;;;4897642;29;20288;-73
2023/10/13 00:04:05;;;;;;;114.10;87.53;;;14.30;99.90;;;;;;4893032;29;20721;-73
2023/10/13 00:06:31;;;;;;;104.10;69.83;;;14.30;99.90;;;;;;4899940;29;20313;-73
2023/10/13 00:08:56;;;;;;;112.97;78.80;;;14.40;99.90;;;;;;4899502;29;20843;-73
2023/10/13 00:11:22;;;;;;;106.33;68.23;;;14.40;99.90;;;;;;4894376;29;20072;-73
2023/10/13 00:13:51;;;;;;;108.90;82.13;;;14.50;99.90;;;;;;4895062;29;20716;-73
2023/10/13 00:16:21;;;;;;;104.23;69.73;;;14.50;99.90;;;;;;4896082;29;20041;-73
2023/10/13 00:18:48;;;;;;;107.10;75.53;;;14.50;99.90;;;;;;4905722;29;20324;-73
2023/10/13 00:21:15;;;;;;;96.77;72.03;;;14.60;99.90;;;;;;4917912;29;20301;-73
2023/10/13 00:23:52;;;;;;;94.30;74.63;;;14.60;99.90;;;;;;4896164;29;20653;-73
2023/10/13 00:26:27;;;;;;;88.80;65.33;;;14.70;99.90;;;;;;4896132;29;20821;-73
2023/10/13 00:29:28;;;;;;;73.20;56.37;;;14.70;99.90;;;;;;4896734;29;20297;-73
2023/10/13 00:31:54;;;;;;;78.00;59.87;;;14.80;99.90;;;;;;4891762;29;20301;-73
2023/10/13 00:34:25;;;;;;;77.90;60.67;;;15.00;99.90;;;;;;4892105;29;20840;-73
2023/10/13 00:39:44;;;;;;;63.27;56.53;;;15.10;99.90;;;;;;4892435;29;20776;-73
2023/10/13 00:42:18;;;;;;;67.47;60.22;;;15.30;99.90;;;;;;4893885;29;20297;-73
2023/10/13 00:44:49;;;;;;;64.50;58.83;;;15.40;99.90;;;;;;4878779;29;20052;-73
2023/10/13 00:47:47;;;;;;;67.07;60.87;;;15.40;99.90;;;;;;4883999;29;20056;-73
2023/10/13 00:50:10;;;;;;;62.20;56.60;;;15.50;99.90;;;;;;4878897;29;20282;-73
2023/10/13 00:52:37;;;;;;;59.37;54.07;;;15.50;99.90;;;;;;4874586;29;20888;-73
2023/10/13 00:55:05;;;;;;;53.00;47.87;;;15.60;99.90;;;;;;4886384;29;20289;-73
2023/10/13 00:57:31;;;;;;;66.20;60.87;;;15.60;99.90;;;;;;4886016;29;20294;-73
2023/10/13 00:59:57;;;;;;;56.77;51.97;;;15.60;99.90;;;;;;4887730;29;20296;-73
2023/10/13 01:05:02;;;;;;;59.87;55.47;;;15.70;99.90;;;;;;4902119;29;20618;-73
2023/10/13 01:07:28;;;;;;;68.13;62.63;;;15.70;99.90;;;;;;4886372;29;20297;-73
2023/10/13 01:09:55;;;;;;;57.43;52.50;;;15.70;99.90;;;;;;4884626;29;20296;-73
2023/10/13 01:12:24;;;;;;;60.70;56.50;;;15.70;99.90;;;;;;4893442;29;20040;-73
2023/10/13 01:14:50;;;;;;;47.33;43.37;;;15.70;99.90;;;;;;4882202;29;20328;-73
2023/10/13 01:17:15;;;;;;;48.03;43.83;;;15.70;99.90;;;;;;4887408;29;20685;-73
2023/10/13 01:19:45;;;;;;;50.23;46.33;;;15.70;99.90;;;;;;4892359;29;20409;-73
2023/10/13 01:22:11;;;;;;;42.30;38.83;;;15.70;99.90;;;;;;4868851;29;20052;-73
2023/10/13 01:24:37;;;;;;;48.47;44.67;;;15.70;99.90;;;;;;4887579;29;20338;-73
2023/10/13 01:27:17;;;;;;;48.93;45.30;;;15.70;99.90;;;;;;4883448;29;20293;-73
2023/10/13 01:29:48;;;;;;;39.53;36.43;;;15.70;99.90;;;;;;4894997;29;20136;-73
2023/10/13 01:32:19;;;;;;;51.77;48.17;;;15.60;99.90;;;;;;4878303;29;20294;-73
2023/10/13 01:34:47;;;;;;;52.20;48.53;;;15.70;99.90;;;;;;4879556;29;20293;-73
2023/10/13 01:37:12;;;;;;;52.87;49.27;;;15.70;99.90;;;;;;4882200;29;20305;-73
2023/10/13 01:39:38;;;;;;;44.77;41.07;;;15.70;99.90;;;;;;4885124;29;20297;-73
2023/10/13 01:42:06;;;;;;;47.50;44.03;;;15.70;99.90;;;;;;4899603;29;20057;-73
2023/10/13 01:44:32;;;;;;;60.87;56.73;;;15.70;99.90;;;;;;4885163;29;20048;-73
2023/10/13 01:47:06;;;;;;;51.07;46.97;;;15.70;99.90;;;;;;4882001;29;20366;-73
2023/10/13 01:49:47;;;;;;;58.20;54.07;;;15.70;99.90;;;;;;4883808;29;21140;-73
2023/10/13 01:52:17;;;;;;;47.77;43.70;;;15.70;99.90;;;;;;4884537;29;20361;-73
2023/10/13 01:54:48;;;;;;;42.17;38.30;;;15.70;99.90;;;;;;4881808;29;20301;-73
2023/10/13 01:57:17;;;;;;;56.10;51.10;;;15.70;99.90;;;;;;4883338;29;20305;-73
2023/10/13 01:59:49;;;;;;;53.93;49.43;;;15.70;99.90;;;;;;4883033;29;20293;-73
2023/10/13 02:02:28;;;;;;;51.13;46.70;;;15.70;99.90;;;;;;4881947;29;20315;-73
2023/10/13 02:05:00;;;;;;;59.37;54.23;;;15.70;99.90;;;;;;4893576;29;20309;-73
2023/10/13 02:07:34;;;;;;;57.20;52.77;;;15.70;99.90;;;;;;4881966;29;20318;-73
2023/10/13 02:10:05;;;;;;;66.67;61.07;;;15.70;99.90;;;;;;4902264;29;20292;-73
2023/10/13 02:12:42;;;;;;;57.03;51.90;;;15.70;99.90;;;;;;4880898;29;20293;-73
2023/10/13 02:15:21;;;;;;;51.13;45.80;;;15.80;99.90;;;;;;4884397;29;20288;-73
2023/10/13 02:17:51;;;;;;;60.13;54.03;;;15.80;99.90;;;;;;4880701;29;20277;-73
2023/10/13 02:20:30;;;;;;;72.10;65.23;;;15.80;99.90;;;;;;4899675;29;20289;-73
2023/10/13 02:22:56;;;;;;;64.43;57.53;;;15.80;99.90;;;;;;4885726;29;20289;-73
2023/10/13 02:28:13;;;;;;;57.97;45.17;;;15.80;99.90;;;;;;4899791;29;20053;-73
2023/10/13 02:30:44;;;;;;;69.53;62.93;;;15.90;99.90;;;;;;4874820;29;20328;-73
2023/10/13 02:33:13;;;;;;;67.13;60.23;;;15.90;99.90;;;;;;4882384;29;20293;-73
2023/10/13 02:35:43;;;;;;;66.53;59.33;;;15.90;99.90;;;;;;4887714;29;20852;-73
2023/10/13 02:38:12;;;;;;;67.73;60.37;;;15.90;99.90;;;;;;4888027;29;20348;-73
2023/10/13 02:40:41;;;;;;;70.33;64.23;;;15.90;99.90;;;;;;4890076;29;20373;-73
2023/10/13 02:43:07;;;;;;;50.33;45.33;;;15.90;99.90;;;;;;4892170;29;20293;-73
2023/10/13 02:45:36;;;;;;;64.30;58.20;;;15.90;99.90;;;;;;4883329;29;20320;-73
2023/10/13 02:48:12;;;;;;;58.90;53.20;;;15.90;99.90;;;;;;4884239;29;20060;-73
2023/10/13 02:50:43;;;;;;;72.57;66.17;;;15.90;99.90;;;;;;4884235;29;20310;-73
2023/10/13 02:53:12;;;;;;;66.27;59.37;;;15.90;99.90;;;;;;4895287;29;20286;-73
2023/10/13 02:55:49;;;;;;;75.00;67.43;;;15.90;99.90;;;;;;4880421;29;20301;-73
2023/10/13 02:58:15;;;;;;;67.87;60.87;;;15.90;99.90;;;;;;4884656;29;20304;-73
2023/10/13 03:00:41;;;;;;;57.37;51.13;;;15.90;99.90;;;;;;4886702;29;20293;-73
2023/10/13 03:03:07;;;;;;;56.93;50.10;;;15.90;99.90;;;;;;4902890;29;20061;-73
2023/10/13 03:05:39;;;;;;;61.23;55.50;;;15.90;99.90;;;;;;4885997;29;20337;-73
2023/10/13 03:08:06;;;;;;;65.03;58.73;;;15.90;99.90;;;;;;4886214;29;20301;-73
2023/10/13 03:10:32;;;;;;;54.80;49.03;;;15.90;99.90;;;;;;4889963;29;20706;-74
2023/10/13 03:12:59;;;;;;;61.13;55.13;;;15.90;99.90;;;;;;4892146;29;20320;-73
2023/10/13 03:15:31;;;;;;;59.00;53.70;;;15.90;99.90;;;;;;4869348;29;20296;-73
2023/10/13 03:17:59;;;;;;;63.13;57.57;;;15.90;99.90;;;;;;4867303;29;20333;-73
2023/10/13 03:20:35;;;;;;;60.33;55.03;;;15.90;99.90;;;;;;4870169;29;20328;-73
2023/10/13 03:23:01;;;;;;;53.47;48.43;;;15.90;99.90;;;;;;4868867;29;20364;-73
2023/10/13 03:25:36;;;;;;;63.43;57.83;;;15.90;99.90;;;;;;4870032;29;20305;-73
2023/10/13 03:28:04;;;;;;;53.70;48.63;;;15.80;99.90;;;;;;4871856;29;20048;-73
2023/10/13 03:30:52;;;;;;;42.53;37.63;;;15.80;99.90;;;;;;4870970;29;20873;-73
2023/10/13 03:33:28;;;;;;;47.67;43.70;;;15.80;99.90;;;;;;4872539;29;20310;-73
2023/10/13 03:35:59;;;;;;;39.57;31.67;;;15.80;99.90;;;;;;4870223;29;20296;-73
2023/10/13 03:38:27;;;;;;;57.87;53.13;;;15.80;99.90;;;;;;4872958;29;20292;-73
2023/10/13 03:41:12;;;;;;;46.97;42.70;;;15.80;99.90;;;;;;4868656;29;20918;-73
2023/10/13 03:43:51;;;;;;;57.58;53.42;;;15.80;99.90;;;;;;4885638;29;20297;-73
2023/10/13 03:46:21;;;;;;;46.63;42.03;;;15.80;99.90;;;;;;4869526;29;20044;-73
2023/10/13 03:49:06;;;;;;;54.47;50.10;;;15.80;99.90;;;;;;4889622;29;20293;-73
2023/10/13 03:51:32;;;;;;;59.97;55.42;;;15.80;99.90;;;;;;4870097;29;20286;-73
2023/10/13 03:53:58;;;;;;;55.33;50.87;;;15.80;99.90;;;;;;4866538;29;20041;-73
2023/10/13 03:56:26;;;;;;;45.73;41.70;;;15.80;99.90;;;;;;4866529;29;20300;-73
2023/10/13 03:58:54;;;;;;;71.27;66.10;;;15.90;99.90;;;;;;4870337;29;20796;-73
2023/10/13 04:01:32;;;;;;;50.17;45.73;;;15.90;99.90;;;;;;4887530;29;20297;-73
2023/10/13 04:04:11;;;;;;;48.10;44.43;;;15.90;99.90;;;;;;4872760;29;20331;-73
2023/10/13 04:17:27;;;;;;;50.93;45.70;;;15.90;99.90;;;;;;4872288;29;20289;-73
2023/10/13 04:23:26;;;;;;;69.03;63.40;;;15.90;99.90;;;;;;4872530;29;20448;-73
2023/10/13 04:25:52;;;;;;;53.90;48.87;;;15.90;99.90;;;;;;4893901;29;20325;-74
2023/10/13 04:28:34;;;;;;;78.67;72.43;;;15.90;99.90;;;;;;4900418;29;20350;-75
2023/10/13 04:31:11;;;;;;;71.60;65.53;;;15.90;99.90;;;;;;4889195;29;20297;-74
2023/10/13 04:33:51;;;;;;;59.67;54.30;;;15.90;99.90;;;;;;4887474;29;20297;-75
2023/10/13 04:39:29;;;;;;;66.47;60.23;;;15.90;99.90;;;;;;4889781;29;20297;-74
2023/10/13 04:41:57;;;;;;;59.13;49.97;;;15.90;99.90;;;;;;4887057;29;20324;-74
2023/10/13 04:54:53;;;;;;;73.40;66.47;;;15.80;99.90;;;;;;4889599;29;20297;-75
2023/10/13 05:49:39;;;;;;;43.70;40.60;;;15.50;99.90;;;;;;4890388;29;20052;-74
2023/10/13 05:52:06;;;;;;;41.47;38.60;;;15.50;99.90;;;;;;4892538;29;20341;-74
2023/10/13 06:30:13;;;;;;;75.33;70.73;;;15.60;99.90;;;;;;4888551;29;20286;-75
2023/10/13 06:32:41;;;;;;;40.87;38.27;;;15.70;99.90;;;;;;4888460;29;20296;-74
2023/10/13 06:35:08;;;;;;;68.03;64.07;;;15.70;99.90;;;;;;4886091;29;20041;-75
2023/10/13 06:37:36;;;;;;;77.17;70.87;;;15.80;99.90;;;;;;4907990;29;20286;-75
2023/10/13 06:40:32;;;;;;;85.13;80.43;;;15.80;99.90;;;;;;4885034;29;20305;-76
2023/10/13 06:43:17;;;;;;;106.83;100.63;;;15.80;99.90;;;;;;4902082;29;20329;-75
2023/10/13 06:45:56;;;;;;;52.38;49.25;;;15.80;99.90;;;;;;4890203;29;20337;-75
2023/10/13 06:48:24;;;;;;;60.47;56.57;;;15.80;99.90;;;;;;4904674;29;20048;-74
2023/10/13 06:50:52;;;;;;;51.20;48.10;;;15.80;99.90;;;;;;4898249;29;20294;-74
2023/10/13 06:53:18;;;;;;;62.97;59.30;;;15.80;99.90;;;;;;4898057;29;20282;-75
2023/10/13 06:55:46;;;;;;;47.07;43.97;;;15.80;99.90;;;;;;4886694;29;20293;-75
2023/10/13 06:58:14;;;;;;;45.10;41.90;;;15.80;99.90;;;;;;4884641;29;21093;-74
2023/10/13 07:00:57;;;;;;;37.50;34.27;;;15.80;99.90;;;;;;4884208;29;20289;-75
2023/10/13 07:03:24;;;;;;;63.20;58.97;;;15.70;99.90;;;;;;4884016;29;20289;-75
2023/10/13 07:05:51;;;;;;;73.13;68.13;;;15.70;99.90;;;;;;4883476;29;20436;-75
2023/10/13 07:08:21;;;;;;;83.97;78.37;;;15.70;99.90;;;;;;4885717;29;20301;-75
2023/10/13 07:13:36;;;;;;;82.43;77.80;;;15.70;99.90;;;;;;4883213;29;20297;-74
2023/10/13 07:16:23;;;;;;;76.57;71.93;;;15.60;99.90;;;;;;4885988;29;20293;-74
2023/10/13 07:18:52;;;;;;;68.57;64.33;;;15.60;99.90;;;;;;4878615;29;20361;-74
2023/10/13 07:21:30;;;;;;;68.83;63.93;;;15.60;99.90;;;;;;4882679;29;20416;-74
2023/10/13 07:24:08;;;;;;;50.57;46.60;;;15.60;99.90;;;;;;4903701;29;20298;-75
2023/10/13 07:26:45;;;;;;;50.67;47.13;;;15.50;99.90;;;;;;4894698;29;20374;-75
2023/10/13 07:29:12;;;;;;;51.07;47.43;;;15.50;99.90;;;;;;4886575;29;20281;-75
2023/10/13 07:31:39;;;;;;;46.13;42.87;;;15.50;99.90;;;;;;4882146;29;20297;-74
2023/10/13 07:34:10;;;;;;;61.87;57.73;;;15.50;99.90;;;;;;4888238;29;20283;-75
2023/10/13 07:36:39;;;;;;;73.10;68.20;;;15.50;99.90;;;;;;4903314;29;20325;-74
2023/10/13 07:39:28;;;;;;;63.90;59.70;;;15.50;99.90;;;;;;4871752;29;20325;-74
2023/10/13 07:42:38;;;;;;;58.10;53.93;;;15.50;99.90;;;;;;4892464;29;20340;-74
2023/10/13 07:44:45;;;;;;;64.27;59.80;;;15.50;99.90;;;;;;4880511;29;20379;-74
2023/10/13 07:47:14;;;;;;;68.77;64.13;;;15.50;99.90;;;;;;4889154;29;20294;-74
2023/10/13 07:49:40;;;;;;;95.83;90.13;;;15.50;99.90;;;;;;4885624;29;20341;-74
2023/10/13 07:54:55;;;;;;;65.00;60.57;;;15.50;99.90;;;;;;4876706;29;20289;-74
2023/10/13 07:57:29;;;;;;;59.83;55.67;;;15.50;99.90;;;;;;4873109;29;20281;-74
2023/10/13 08:00:10;;;;;;;86.17;80.03;;;15.50;99.90;;;;;;4871814;29;20438;-74
2023/10/13 08:02:48;;;;;;;94.90;88.80;;;15.60;99.90;;;;;;4854943;29;20312;-74
2023/10/13 08:05:24;;;;;;;57.70;53.30;;;15.60;99.90;;;;;;4871746;29;20311;-74
2023/10/13 08:07:52;;;;;;;59.80;55.10;;;15.70;99.90;;;;;;4872646;29;20429;-74
2023/10/13 08:10:18;;;;;;;76.60;71.43;;;15.80;99.90;;;;;;4870635;29;20293;-74
2023/10/13 08:12:46;;;;;;;55.13;51.17;;;15.80;99.90;;;;;;4885852;29;20907;-74
2023/10/13 08:15:31;;;;;;;54.03;50.53;;;15.80;99.90;;;;;;4874024;29;20062;-74
2023/10/13 08:17:59;;;;;;;64.63;60.37;;;15.90;99.90;;;;;;4873847;29;20364;-74
2023/10/13 08:20:30;;;;;;;53.73;50.20;;;15.80;99.90;;;;;;4873953;29;20282;-74
2023/10/13 08:23:13;;;;;;;54.07;50.00;;;15.80;99.90;;;;;;4875099;29;20770;-74
2023/10/13 08:31:22;;;;;;;54.37;50.80;;;15.90;99.90;;;;;;4872932;29;20045;-74
2023/10/13 08:33:48;;;;;;;49.37;46.20;;;15.90;99.90;;;;;;4874810;29;20286;-74
2023/10/13 08:36:30;;;;;;;59.47;55.60;;;15.90;99.90;;;;;;4874708;29;20334;-75
2023/10/13 08:38:56;;;;;;;114.60;108.40;;;15.90;99.90;;;;;;4874062;29;20319;-75
2023/10/13 08:43:50;;;;;;;53.00;49.80;;;15.90;99.90;;;;;;4871135;29;20317;-74
2023/10/13 08:46:31;;;;;;;93.40;87.70;;;16.00;99.90;;;;;;4874939;29;20352;-75
2023/10/13 08:49:15;;;;;;;88.07;82.50;;;16.10;99.90;;;;;;4872873;29;20294;-75
2023/10/13 08:52:45;;;;;;;119.57;112.73;;;16.10;99.90;;;;;;4877992;29;20808;-75
2023/10/13 08:54:33;;;;;;;79.10;74.53;;;16.20;99.90;;;;;;4868932;29;20349;-75
2023/10/13 08:57:19;;;;;;;114.23;107.70;;;16.30;99.90;;;;;;4859055;29;20373;-75
2023/10/13 08:59:53;;;;;;;83.50;78.77;;;16.40;99.90;;;;;;4874000;29;20289;-75
2023/10/13 09:07:55;;;;;;;66.83;62.70;;;16.60;99.90;;;;;;4876935;29;20294;-74
2023/10/13 09:10:33;;;;;;;65.00;60.63;;;16.70;99.90;;;;;;4873393;29;20308;-75
2023/10/13 09:13:02;;;;;;;65.70;62.10;;;16.80;99.90;;;;;;4870990;29;20360;-74
2023/10/13 09:18:42;;;;;;;49.30;45.80;;;16.90;99.90;;;;;;4888646;29;20285;-74
2023/10/13 09:21:34;;;;;;;58.33;54.30;;;16.90;99.90;;;;;;4871359;29;20297;-74
2023/10/13 09:27:04;;;;;;;60.47;56.77;;;17.10;99.90;;;;;;4870725;29;20052;-74
2023/10/13 09:29:38;;;;;;;78.37;73.53;;;17.10;99.90;;;;;;4875202;29;20837;-74
2023/10/13 09:32:11;;;;;;;68.40;63.80;;;17.20;99.90;;;;;;4870212;29;20298;-74
2023/10/13 09:34:40;;;;;;;108.43;102.00;;;17.30;99.90;;;;;;4876966;29;20052;-74
2023/10/13 09:37:06;;;;;;;61.37;57.50;;;17.40;99.90;;;;;;4873217;29;20136;-74
2023/10/13 09:39:44;;;;;;;67.80;63.73;;;17.50;99.90;;;;;;4873903;29;20684;-74
2023/10/13 09:42:12;;;;;;;66.10;61.63;;;17.50;99.90;;;;;;4872817;29;20097;-74
2023/10/13 09:44:40;;;;;;;117.47;110.63;;;17.60;99.90;;;;;;4889319;29;20052;-74
2023/10/13 09:47:16;;;;;;;50.23;47.10;;;17.60;99.90;;;;;;4872959;29;20089;-74
2023/10/13 09:49:48;;;;;;;80.20;75.13;;;17.70;99.90;;;;;;4888705;29;20581;-74
2023/10/13 09:52:25;;;;;;;72.37;68.17;;;17.80;99.90;;;;;;4868887;29;20044;-74
2023/10/13 09:54:59;;;;;;;39.70;37.17;;;17.80;99.90;;;;;;4871477;29;20136;-74
2023/10/13 09:57:34;;;;;;;47.35;44.42;;;17.80;99.90;;;;;;4889110;29;20048;-74
2023/10/13 10:03:03;;;;;;;37.03;34.30;;;17.80;99.90;;;;;;4875453;29;20037;-74
2023/10/13 10:05:34;;;;;;;50.93;47.43;;;17.70;99.90;;;;;;4856992;29;20232;-74
2023/10/13 10:08:01;;;;;;;33.47;30.93;;;17.70;99.90;;;;;;4888145;29;20053;-74
2023/10/13 10:10:47;;;;;;;88.43;83.40;;;17.70;99.90;;;;;;4874840;29;20045;-74
2023/10/13 10:13:35;;;;;;;39.13;36.30;;;17.70;99.90;;;;;;4872833;29;20093;-74
2023/10/13 10:16:14;;;;;;;36.30;33.53;;;17.80;99.90;;;;;;4871728;29;20053;-74
2023/10/13 10:18:41;;;;;;;51.13;47.47;;;18.00;99.90;;;;;;4869708;29;20053;-74
2023/10/13 10:21:10;;;;;;;35.70;32.97;;;18.10;99.90;;;;;;4896664;29;20092;-74
2023/10/13 10:23:39;;;;;;;66.57;62.37;;;18.20;99.90;;;;;;4878547;29;20053;-74
2023/10/13 10:26:23;;;;;;;67.60;62.93;;;18.20;99.90;;;;;;4870205;29;20041;-74
2023/10/13 10:28:48;;;;;;;37.37;34.83;;;18.30;99.90;;;;;;4872619;29;20900;-74
2023/10/13 10:31:19;;;;;;;32.20;29.87;;;18.40;99.90;;;;;;4875703;29;20049;-74
2023/10/13 10:33:50;;;;;;;33.53;30.93;;;18.40;99.90;;;;;;4891076;29;20045;-74
2023/10/13 10:36:27;;;;;;;56.27;52.47;;;18.30;99.90;;;;;;4872264;29;20049;-74
2023/10/13 10:38:59;;;;;;;31.67;28.50;;;18.30;99.90;;;;;;4870627;29;20046;-74
2023/10/13 10:41:38;;;;;;;50.63;46.50;;;18.30;99.90;;;;;;4877703;29;20552;-74
2023/10/13 10:44:15;;;;;;;36.23;33.37;;;18.40;99.90;;;;;;4869109;29;20049;-74
2023/10/13 10:46:51;;;;;;;47.53;43.20;;;18.50;99.90;;;;;;4872183;29;20748;-74
2023/10/13 10:49:29;;;;;;;89.33;82.40;;;18.60;99.90;;;;;;4867989;29;20044;-74
2023/10/13 10:52:14;;;;;;;31.23;28.10;;;18.70;99.90;;;;;;4869395;29;20469;-74
2023/10/13 10:54:43;;;;;;;91.07;84.50;;;18.70;99.90;;;;;;4856812;29;20108;-74
2023/10/13 10:57:17;;;;;;;42.60;39.47;;;18.70;99.90;;;;;;4872435;29;20037;-74
2023/10/13 10:59:42;;;;;;;33.60;30.57;;;18.60;99.90;;;;;;4887650;29;20045;-74
2023/10/13 11:02:08;;;;;;;40.47;37.57;;;18.60;99.90;;;;;;4871465;29;20726;-73
2023/10/13 11:04:40;;;;;;;46.50;42.87;;;18.50;99.90;;;;;;4872449;29;20540;-74
2023/10/13 11:07:08;;;;;;;42.97;40.10;;;18.40;99.90;;;;;;4877778;29;20044;-74
2023/10/13 11:12:24;;;;;;;51.77;48.13;;;18.30;99.90;;;;;;4875184;29;20115;-73
2023/10/13 11:15:09;;;;;;;35.47;32.03;;;18.20;99.90;;;;;;4875652;29;20068;-74
2023/10/13 11:17:51;;;;;;;46.63;43.27;;;18.30;99.90;;;;;;4875593;29;20395;-74
2023/10/13 11:20:25;;;;;;;38.20;35.53;;;18.30;99.90;;;;;;4872136;29;20065;-73
2023/10/13 11:22:52;;;;;;;57.17;53.72;;;18.30;99.90;;;;;;4875713;29;20513;-74
2023/10/13 11:25:35;;;;;;;37.70;33.83;;;18.40;99.90;;;;;;4892831;29;20490;-74
2023/10/13 11:28:17;;;;;;;85.73;79.80;;;18.30;99.90;;;;;;4887428;29;20049;-75
2023/10/13 11:30:49;;;;;;;65.97;61.63;;;18.20;99.90;;;;;;4876920;29;20049;-75
2023/10/13 11:33:23;;;;;;;49.83;46.00;;;18.20;99.90;;;;;;4877643;29;20072;-74
2023/10/13 11:35:55;;;;;;;53.88;50.35;;;18.10;99.90;;;;;;4876993;29;20412;-74
2023/10/13 11:41:08;;;;;;;52.87;48.63;;;17.90;99.90;;;;;;4875427;29;20389;-74
2023/10/13 11:48:36;;;;;;;60.63;56.33;;;17.70;99.90;;;;;;4894683;29;20104;-74
2023/10/13 11:51:09;;;;;;;44.67;41.37;;;17.70;99.90;;;;;;4873715;29;20048;-74
2023/10/13 11:53:35;;;;;;;55.70;51.97;;;17.70;99.90;;;;;;4873334;29;20045;-74
2023/10/13 11:56:10;;;;;;;46.00;43.00;;;17.80;99.90;;;;;;4875790;29;20037;-74
2023/10/13 11:58:37;;;;;;;43.77;40.23;;;17.80;99.90;;;;;;4876525;29;20084;-74
2023/10/13 12:11:54;;;;;;;33.90;30.80;;;17.90;99.90;;;;;;4891045;29;20048;-74
2023/10/13 12:14:52;;;;;;;67.00;62.63;;;17.80;99.90;;;;;;4872945;29;20059;-74
2023/10/13 12:17:39;;;;;;;62.23;58.07;;;17.80;99.90;;;;;;4875086;29;20653;-74
2023/10/13 12:20:17;;;;;;;53.53;49.53;;;17.80;99.90;;;;;;4874334;29;20079;-74
2023/10/13 12:22:51;;;;;;;48.23;44.33;;;17.70;99.90;;;;;;4874555;29;20903;-74
2023/10/13 12:25:34;;;;;;;44.67;41.20;;;17.60;99.90;;;;;;4890102;29;20051;-74
2023/10/13 12:28:18;;;;;;;67.77;63.37;;;17.60;99.90;;;;;;4879776;29;20064;-74
2023/10/13 12:30:52;;;;;;;50.97;47.30;;;17.60;99.90;;;;;;4872406;29;20049;-74
2023/10/13 12:33:27;;;;;;;103.30;96.87;;;17.60;99.90;;;;;;4875057;29;20069;-73
2023/10/13 12:36:26;;;;;;;122.30;114.93;;;17.60;99.90;;;;;;4891117;29;20053;-73
2023/10/13 12:48:55;;;;;;;46.33;42.60;;;17.60;99.90;;;;;;4874332;29;20100;-73
2023/10/13 12:49:57;;;;;;;49.87;45.77;;;17.40;99.90;;;;;;4870384;29;20113;-73
2023/10/13 12:52:27;;;;;;;61.87;57.67;;;17.40;99.90;;;;;;4866820;29;20049;-73
2023/10/13 12:57:25;;;;;;;80.57;75.30;;;17.40;99.90;;;;;;4889504;29;20131;-73
2023/10/13 12:59:53;;;;;;;73.37;68.23;;;17.30;99.90;;;;;;4873566;29;20052;-73
2023/10/13 13:02:26;;;;;;;52.60;48.40;;;17.30;99.90;;;;;;4873594;29;20048;-73
2023/10/13 13:05:11;;;;;;;31.33;28.30;;;17.30;99.90;;;;;;4858650;29;20068;-73
2023/10/13 13:07:44;;;;;;;55.15;50.67;;;17.30;99.90;;;;;;4874170;29;20462;-73
2023/10/13 13:10:14;;;;;;;37.00;33.20;;;17.30;99.90;;;;;;4873477;29;20315;-73
2023/10/13 13:12:41;;;;;;;33.93;30.97;;;17.30;99.90;;;;;;4872027;29;20056;-73
2023/10/13 13:15:11;;;;;;;61.17;56.97;;;17.30;99.90;;;;;;4890441;29;20567;-73
2023/10/13 13:17:38;;;;;;;139.93;129.93;;;17.30;99.90;;;;;;4860112;29;20469;-73
2023/10/13 13:20:16;;;;;;;34.67;31.40;;;17.30;99.90;;;;;;4890192;29;20045;-73
2023/10/13 13:22:42;;;;;;;50.90;47.00;;;17.30;99.90;;;;;;4859785;29;20113;-73
2023/10/13 13:25:08;;;;;;;47.60;44.13;;;17.30;99.90;;;;;;4873953;29;20044;-74
2023/10/13 13:27:34;;;;;;;36.03;32.43;;;17.40;99.90;;;;;;4874388;29;20158;-73
2023/10/13 13:30:00;;;;;;;37.17;33.97;;;17.40;99.90;;;;;;4876371;29;20048;-73
2023/10/13 13:32:28;;;;;;;45.93;42.43;;;17.50;99.90;;;;;;4874431;29;20041;-73
2023/10/13 13:34:54;;;;;;;40.40;37.20;;;17.50;99.90;;;;;;4873476;29;20033;-73
2023/10/13 13:37:21;;;;;;;39.33;36.17;;;17.60;99.90;;;;;;4874907;29;20536;-73
2023/10/13 13:39:47;;;;;;;43.50;39.33;;;17.60;99.90;;;;;;4857757;29;20049;-73
2023/10/13 13:42:17;;;;;;;33.40;29.93;;;17.70;99.90;;;;;;4876313;29;21090;-73
2023/10/13 13:44:46;;;;;;;55.23;50.93;;;17.70;99.90;;;;;;4903110;29;20048;-74
2023/10/13 13:47:16;;;;;;;42.93;39.50;;;17.70;99.90;;;;;;4874290;29;20540;-74
2023/10/13 13:50:05;;;;;;;66.50;61.93;;;17.80;99.90;;;;;;4898767;29;20057;-74
2023/10/13 13:52:45;;;;;;;36.33;31.30;;;17.90;99.90;;;;;;4882946;29;20595;-74
2023/10/13 13:55:17;;;;;;;43.23;39.60;;;17.90;99.90;;;;;;4886373;29;20124;-74
2023/10/13 13:57:46;;;;;;;32.40;29.00;;;18.00;99.90;;;;;;4882662;29;20155;-74
2023/10/13 14:00:58;;;;;;;61.20;56.27;;;18.00;99.90;;;;;;4868051;29;20048;-73
2023/10/13 14:03:12;;;;;;;115.83;107.23;;;18.00;99.90;;;;;;4868702;29;20052;-74
2023/10/13 14:05:45;;;;;;;32.40;29.40;;;17.90;99.90;;;;;;4885596;29;20057;-74
2023/10/13 14:08:15;;;;;;;49.13;44.83;;;18.00;99.90;;;;;;4884500;29;20075;-74
2023/10/13 14:13:48;;;;;;;68.65;63.20;;;18.00;99.90;;;;;;4882660;29;20041;-74
2023/10/13 14:16:16;;;;;;;48.90;44.70;;;18.10;99.90;;;;;;4879499;29;20053;-74
2023/10/13 14:18:50;;;;;;;42.57;38.77;;;18.10;99.90;;;;;;4883006;29;20059;-74
2023/10/13 14:21:18;;;;;;;46.87;42.47;;;18.10;99.90;;;;;;4885517;29;20041;-74
2023/10/13 14:23:48;;;;;;;27.70;24.80;;;18.10;99.90;;;;;;4904762;29;20044;-74
2023/10/13 14:26:20;;;;;;;90.83;83.97;;;18.20;99.90;;;;;;4888181;29;20037;-74
2023/10/13 14:29:05;;;;;;;60.77;55.97;;;18.20;99.90;;;;;;4883556;29;20045;-74
2023/10/13 14:31:31;;;;;;;41.05;37.63;;;18.30;99.90;;;;;;4870728;29;20048;-74
2023/10/13 14:33:58;;;;;;;100.33;93.10;;;18.30;99.90;;;;;;4884528;29;20041;-74
2023/10/13 14:36:28;;;;;;;43.97;40.00;;;18.30;99.90;;;;;;4885001;29;20108;-74
2023/10/13 14:38:54;;;;;;;108.63;100.47;;;18.30;99.90;;;;;;4881616;29;20124;-75
2023/10/13 14:41:20;;;;;;;100.40;92.77;;;18.30;99.90;;;;;;4881848;29;20154;-74
2023/10/13 14:43:48;;;;;;;82.23;76.30;;;18.40;99.90;;;;;;4879096;29;20403;-74
2023/10/13 14:46:25;;;;;;;122.57;114.10;;;18.40;99.90;;;;;;4882814;29;20052;-75
2023/10/13 14:48:54;;;;;;;101.10;93.43;;;18.40;99.90;;;;;;4882560;29;20049;-75
2023/10/13 14:51:20;;;;;;;38.90;34.83;;;18.40;99.90;;;;;;4878639;29;20132;-75
2023/10/13 14:53:46;;;;;;;104.90;97.27;;;18.40;99.90;;;;;;4860594;29;20076;-74
2023/10/13 14:56:13;;;;;;;120.00;110.73;;;18.40;99.90;;;;;;4865361;29;20049;-74
2023/10/13 14:58:42;;;;;;;63.60;58.40;;;18.30;99.90;;;;;;4865962;29;20112;-74
2023/10/13 15:01:14;;;;;;;212.73;194.87;;;18.40;99.90;;;;;;4855836;29;20037;-74
2023/10/13 15:03:45;;;;;;;65.17;59.63;;;18.40;99.90;;;;;;4872267;29;20051;-75
2023/10/13 15:06:18;;;;;;;138.53;129.07;;;18.40;99.90;;;;;;4874951;29;20048;-74
2023/10/13 15:08:48;;;;;;;67.97;62.60;;;18.40;99.90;;;;;;4854724;29;20049;-74
2023/10/13 15:11:14;;;;;;;111.07;102.37;;;18.40;99.90;;;;;;4870506;29;20045;-74
2023/10/13 15:13:40;;;;;;;91.80;84.93;;;18.40;99.90;;;;;;4870408;29;20581;-74
2023/10/13 15:16:21;;;;;;;101.60;94.23;;;18.40;99.90;;;;;;4885576;29;20431;-74
2023/10/13 15:18:51;;;;;;;50.80;46.23;;;18.40;99.90;;;;;;4872012;29;20045;-74
2023/10/13 15:21:22;;;;;;;54.27;49.90;;;18.50;99.90;;;;;;4855798;29;20056;-74
2023/10/13 15:23:51;;;;;;;56.60;51.47;;;18.40;99.90;;;;;;4865090;29;20085;-74
2023/10/13 15:26:18;;;;;;;165.97;152.63;;;18.40;99.90;;;;;;4865941;29;20159;-74
2023/10/13 15:28:53;;;;;;;32.50;29.10;;;18.40;99.90;;;;;;4869409;29;20065;-74
2023/10/13 15:31:22;;;;;;;38.92;31.50;;;18.40;99.90;;;;;;4857787;29;20045;-74
2023/10/13 15:33:56;;;;;;;77.40;71.33;;;18.40;99.90;;;;;;4874370;29;20159;-74
2023/10/13 15:36:23;;;;;;;51.30;47.03;;;18.40;99.90;;;;;;4868801;29;20045;-73
2023/10/13 15:38:51;;;;;;;56.90;51.97;;;18.40;99.90;;;;;;4888365;29;20557;-74
2023/10/13 15:41:28;;;;;;;58.67;54.43;;;18.40;99.90;;;;;;4878577;29;20505;-74
2023/10/13 15:43:54;;;;;;;48.23;43.97;;;18.40;99.90;;;;;;4869765;29;20138;-74
2023/10/13 15:46:22;;;;;;;33.93;30.43;;;18.30;99.90;;;;;;4851407;29;20052;-74
2023/10/13 15:48:48;;;;;;;45.87;41.90;;;18.30;99.90;;;;;;4872354;29;20040;-74
2023/10/13 15:51:14;;;;;;;39.30;35.73;;;18.20;99.90;;;;;;4869570;29;20044;-73
2023/10/13 15:53:41;;;;;;;47.63;43.40;;;18.20;99.90;;;;;;4891205;29;20045;-74
2023/10/13 15:56:11;;;;;;;62.47;57.57;;;18.20;99.90;;;;;;4877135;29;20144;-74
2023/10/13 15:58:45;;;;;;;35.03;31.77;;;18.20;99.90;;;;;;4880819;29;20103;-73